Bay Harbor Islands, Florida
Current Conditions -  °F | °C
As of 3:53 AM on Saturday 20 Dec 2014 (Local Time) from KOPF Reporting Station
Few Clouds Few Clouds  
Wind Chill: 58°   Ceiling: Unl
Heat Index: 58°   Visibility: 10mi
Dew Point: 57°   Wind: 3mph
Humidity: 97%   Direction: 20°NNE
Pressure: 30.05"   Gusts: NA
Location:  25.882°N, 80.1292°W
Report Text: KOPF 200853Z AUTO 02003KT 10SM FEW037 14/14 A3005 RMK AO2 SLP176 T01440139 58002
Loading
Personal Weather Stations






























Interactive Weather Map New forecast layout! Learn more

10-Day Weather Forecast

Advertisements
Track Severe Weather on mobile